sensor_id;sensor_type;location;lat;lon;timestamp;temperature;humidity
76936;DHT22;65881;52.438;16.744;2024-01-11T00:02:06;-7.90;99.90
76936;DHT22;65881;52.438;16.744;2024-01-11T00:04:32;-7.90;99.90
76936;DHT22;65881;52.438;16.744;2024-01-11T00:06:57;-7.90;99.90
76936;DHT22;65881;52.438;16.744;2024-01-11T00:09:23;-7.90;99.90
76936;DHT22;65881;52.438;16.744;2024-01-11T00:11:49;-7.80;99.90
76936;DHT22;65881;52.438;16.744;2024-01-11T00:14:14;-7.80;99.90
76936;DHT22;65881;52.438;16.744;2024-01-11T00:16:41;-7.80;99.90
76936;DHT22;65881;52.438;16.744;2024-01-11T00:19:09;-7.90;99.90
76936;DHT22;65881;52.438;16.744;2024-01-11T00:21:34;-7.90;99.90
76936;DHT22;65881;52.438;16.744;2024-01-11T00:24:00;-7.90;99.90
76936;DHT22;65881;52.438;16.744;2024-01-11T00:26:26;-7.90;99.90
76936;DHT22;65881;52.438;16.744;2024-01-11T00:28:51;-7.90;99.90
76936;DHT22;65881;52.438;16.744;2024-01-11T00:31:17;-7.90;99.90
76936;DHT22;65881;52.438;16.744;2024-01-11T00:33:42;-8.00;99.90
76936;DHT22;65881;52.438;16.744;2024-01-11T00:36:08;-8.10;99.90
76936;DHT22;65881;52.438;16.744;2024-01-11T00:38:33;-8.10;99.90
76936;DHT22;65881;52.438;16.744;2024-01-11T00:40:59;-8.10;99.90
76936;DHT22;65881;52.438;16.744;2024-01-11T00:43:25;-8.10;99.90
76936;DHT22;65881;52.438;16.744;2024-01-11T00:45:50;-8.10;99.90
76936;DHT22;65881;52.438;16.744;2024-01-11T00:48:16;-8.10;99.90
76936;DHT22;65881;52.438;16.744;2024-01-11T00:50:42;-8.10;99.90
76936;DHT22;65881;52.438;16.744;2024-01-11T00:53:07;-8.10;99.90
76936;DHT22;65881;52.438;16.744;2024-01-11T00:55:33;-8.10;99.90
76936;DHT22;65881;52.438;16.744;2024-01-11T00:57:59;-8.10;99.90
76936;DHT22;65881;52.438;16.744;2024-01-11T01:00:25;-8.20;99.90
76936;DHT22;65881;52.438;16.744;2024-01-11T01:02:50;-8.20;99.90
76936;DHT22;65881;52.438;16.744;2024-01-11T01:05:16;-8.20;99.90
76936;DHT22;65881;52.438;16.744;2024-01-11T01:07:41;-8.10;99.90
76936;DHT22;65881;52.438;16.744;2024-01-11T01:10:07;-8.10;99.90
76936;DHT22;65881;52.438;16.744;2024-01-11T01:12:34;-8.10;99.90
76936;DHT22;65881;52.438;16.744;2024-01-11T01:14:59;-8.10;99.90
76936;DHT22;65881;52.438;16.744;2024-01-11T01:17:25;-8.10;99.90
76936;DHT22;65881;52.438;16.744;2024-01-11T01:19:50;-7.90;99.90
76936;DHT22;65881;52.438;16.744;2024-01-11T01:22:16;-7.90;99.90
76936;DHT22;65881;52.438;16.744;2024-01-11T01:24:42;-8.00;99.90
76936;DHT22;65881;52.438;16.744;2024-01-11T01:27:07;-8.10;99.90
76936;DHT22;65881;52.438;16.744;2024-01-11T01:29:33;-8.10;99.90
76936;DHT22;65881;52.438;16.744;2024-01-11T01:31:58;-8.10;99.90
76936;DHT22;65881;52.438;16.744;2024-01-11T01:34:24;-8.10;99.90
76936;DHT22;65881;52.438;16.744;2024-01-11T01:36:49;-8.10;99.90
76936;DHT22;65881;52.438;16.744;2024-01-11T01:39:15;-8.00;99.90
76936;DHT22;65881;52.438;16.744;2024-01-11T01:41:41;-8.10;99.90
76936;DHT22;65881;52.438;16.744;2024-01-11T01:44:06;-8.10;99.90
76936;DHT22;65881;52.438;16.744;2024-01-11T01:46:32;-8.20;99.90
76936;DHT22;65881;52.438;16.744;2024-01-11T01:48:59;-8.10;99.90
76936;DHT22;65881;52.438;16.744;2024-01-11T01:51:29;-8.10;99.90
76936;DHT22;65881;52.438;16.744;2024-01-11T01:53:56;-8.10;99.90
76936;DHT22;65881;52.438;16.744;2024-01-11T01:56:23;-8.00;99.90
76936;DHT22;65881;52.438;16.744;2024-01-11T01:58:51;-8.00;99.90
76936;DHT22;65881;52.438;16.744;2024-01-11T02:01:18;-8.00;99.90
76936;DHT22;65881;52.438;16.744;2024-01-11T02:03:46;-8.10;99.90
76936;DHT22;65881;52.438;16.744;2024-01-11T02:06:13;-8.10;99.90
76936;DHT22;65881;52.438;16.744;2024-01-11T02:08:40;-8.00;99.90
76936;DHT22;65881;52.438;16.744;2024-01-11T02:11:07;-7.90;99.90
76936;DHT22;65881;52.438;16.744;2024-01-11T02:13:33;-7.90;99.90
76936;DHT22;65881;52.438;16.744;2024-01-11T02:15:59;-7.90;99.90
76936;DHT22;65881;52.438;16.744;2024-01-11T02:18:25;-7.80;99.90
76936;DHT22;65881;52.438;16.744;2024-01-11T02:20:51;-7.80;99.90
76936;DHT22;65881;52.438;16.744;2024-01-11T02:23:18;-7.90;99.90
76936;DHT22;65881;52.438;16.744;2024-01-11T02:25:45;-7.80;99.90
76936;DHT22;65881;52.438;16.744;2024-01-11T02:28:10;-7.70;99.90
76936;DHT22;65881;52.438;16.744;2024-01-11T02:30:36;-7.80;99.90
76936;DHT22;65881;52.438;16.744;2024-01-11T02:33:03;-7.70;99.90
76936;DHT22;65881;52.438;16.744;2024-01-11T02:35:29;-7.70;99.90
76936;DHT22;65881;52.438;16.744;2024-01-11T02:37:57;-7.70;99.90
76936;DHT22;65881;52.438;16.744;2024-01-11T02:40:23;-7.70;99.90
76936;DHT22;65881;52.438;16.744;2024-01-11T02:42:48;-7.70;99.90
76936;DHT22;65881;52.438;16.744;2024-01-11T02:45:14;-7.70;99.90
76936;DHT22;65881;52.438;16.744;2024-01-11T02:47:40;-7.70;99.90
76936;DHT22;65881;52.438;16.744;2024-01-11T02:50:06;-7.70;99.90
76936;DHT22;65881;52.438;16.744;2024-01-11T02:52:33;-7.60;99.90
76936;DHT22;65881;52.438;16.744;2024-01-11T02:54:59;-7.70;99.90
76936;DHT22;65881;52.438;16.744;2024-01-11T02:57:24;-7.60;99.90
76936;DHT22;65881;52.438;16.744;2024-01-11T02:59:51;-7.50;99.90
76936;DHT22;65881;52.438;16.744;2024-01-11T03:02:17;-7.40;99.90
76936;DHT22;65881;52.438;16.744;2024-01-11T03:04:43;-7.40;99.90
76936;DHT22;65881;52.438;16.744;2024-01-11T03:07:08;-7.50;99.90
76936;DHT22;65881;52.438;16.744;2024-01-11T03:09:34;-7.50;99.90
76936;DHT22;65881;52.438;16.744;2024-01-11T03:12:00;-7.50;99.90
76936;DHT22;65881;52.438;16.744;2024-01-11T03:14:25;-7.50;99.90
76936;DHT22;65881;52.438;16.744;2024-01-11T03:16:51;-7.50;99.90
76936;DHT22;65881;52.438;16.744;2024-01-11T03:19:17;-7.50;99.90
76936;DHT22;65881;52.438;16.744;2024-01-11T03:21:43;-7.50;99.90
76936;DHT22;65881;52.438;16.744;2024-01-11T03:24:09;-7.40;99.90
76936;DHT22;65881;52.438;16.744;2024-01-11T03:26:35;-7.30;99.90
76936;DHT22;65881;52.438;16.744;2024-01-11T03:29:00;-7.30;99.90
76936;DHT22;65881;52.438;16.744;2024-01-11T03:31:26;-7.30;99.90
76936;DHT22;65881;52.438;16.744;2024-01-11T03:33:51;-7.30;99.90
76936;DHT22;65881;52.438;16.744;2024-01-11T03:36:17;-7.20;99.90
76936;DHT22;65881;52.438;16.744;2024-01-11T03:38:43;-7.20;99.90
76936;DHT22;65881;52.438;16.744;2024-01-11T03:41:09;-7.10;99.90
76936;DHT22;65881;52.438;16.744;2024-01-11T03:43:36;-7.10;99.90
76936;DHT22;65881;52.438;16.744;2024-01-11T03:46:01;-7.10;99.90
76936;DHT22;65881;52.438;16.744;2024-01-11T03:48:27;-7.10;99.90
76936;DHT22;65881;52.438;16.744;2024-01-11T03:50:52;-7.00;99.90
76936;DHT22;65881;52.438;16.744;2024-01-11T03:53:18;-7.00;99.90
76936;DHT22;65881;52.438;16.744;2024-01-11T03:55:43;-7.00;99.90
76936;DHT22;65881;52.438;16.744;2024-01-11T03:58:09;-6.90;99.90
76936;DHT22;65881;52.438;16.744;2024-01-11T04:00:35;-6.90;99.90
76936;DHT22;65881;52.438;16.744;2024-01-11T04:03:00;-6.80;99.90
76936;DHT22;65881;52.438;16.744;2024-01-11T04:05:27;-6.80;99.90
76936;DHT22;65881;52.438;16.744;2024-01-11T04:07:53;-6.70;99.90
76936;DHT22;65881;52.438;16.744;2024-01-11T04:10:19;-6.50;99.90
76936;DHT22;65881;52.438;16.744;2024-01-11T04:12:44;-6.30;99.90
76936;DHT22;65881;52.438;16.744;2024-01-11T04:15:14;-6.20;99.90
76936;DHT22;65881;52.438;16.744;2024-01-11T04:17:40;-6.00;99.90
76936;DHT22;65881;52.438;16.744;2024-01-11T04:20:07;-6.00;99.90
76936;DHT22;65881;52.438;16.744;2024-01-11T04:22:36;-5.90;99.90
76936;DHT22;65881;52.438;16.744;2024-01-11T04:25:03;-5.80;99.90
76936;DHT22;65881;52.438;16.744;2024-01-11T04:27:29;-5.70;99.90
76936;DHT22;65881;52.438;16.744;2024-01-11T04:29:55;-5.70;99.90
76936;DHT22;65881;52.438;16.744;2024-01-11T04:32:21;-5.60;99.90
76936;DHT22;65881;52.438;16.744;2024-01-11T04:34:47;-5.60;99.90
76936;DHT22;65881;52.438;16.744;2024-01-11T04:37:14;-5.60;99.90
76936;DHT22;65881;52.438;16.744;2024-01-11T04:39:40;-5.60;99.90
76936;DHT22;65881;52.438;16.744;2024-01-11T04:42:05;-5.60;99.90
76936;DHT22;65881;52.438;16.744;2024-01-11T04:44:31;-5.60;99.90
76936;DHT22;65881;52.438;16.744;2024-01-11T04:46:57;-5.40;99.90
76936;DHT22;65881;52.438;16.744;2024-01-11T04:49:22;-5.40;99.90
76936;DHT22;65881;52.438;16.744;2024-01-11T04:51:48;-5.40;99.90
76936;DHT22;65881;52.438;16.744;2024-01-11T04:54:14;-5.40;99.90
76936;DHT22;65881;52.438;16.744;2024-01-11T04:56:39;-5.30;99.90
76936;DHT22;65881;52.438;16.744;2024-01-11T04:59:05;-5.20;99.90
76936;DHT22;65881;52.438;16.744;2024-01-11T05:01:30;-5.20;99.90
76936;DHT22;65881;52.438;16.744;2024-01-11T05:03:56;-5.20;99.90
76936;DHT22;65881;52.438;16.744;2024-01-11T05:06:22;-5.20;99.90
76936;DHT22;65881;52.438;16.744;2024-01-11T05:08:52;-5.20;99.90
76936;DHT22;65881;52.438;16.744;2024-01-11T05:11:19;-5.10;99.90
76936;DHT22;65881;52.438;16.744;2024-01-11T05:13:45;-5.20;99.90
76936;DHT22;65881;52.438;16.744;2024-01-11T05:16:24;-5.10;99.90
76936;DHT22;65881;52.438;16.744;2024-01-11T05:18:50;-5.10;99.90
76936;DHT22;65881;52.438;16.744;2024-01-11T05:21:16;-5.10;99.90
76936;DHT22;65881;52.438;16.744;2024-01-11T05:23:42;-5.00;99.90
76936;DHT22;65881;52.438;16.744;2024-01-11T05:26:09;-5.00;99.90
76936;DHT22;65881;52.438;16.744;2024-01-11T05:28:35;-5.00;99.90
76936;DHT22;65881;52.438;16.744;2024-01-11T05:31:01;-5.00;99.90
76936;DHT22;65881;52.438;16.744;2024-01-11T05:33:26;-4.90;99.90
76936;DHT22;65881;52.438;16.744;2024-01-11T05:35:52;-5.00;99.90
76936;DHT22;65881;52.438;16.744;2024-01-11T05:38:19;-5.00;99.90
76936;DHT22;65881;52.438;16.744;2024-01-11T05:40:45;-5.00;99.90
76936;DHT22;65881;52.438;16.744;2024-01-11T05:43:11;-4.90;99.90
76936;DHT22;65881;52.438;16.744;2024-01-11T05:45:36;-4.90;99.90
76936;DHT22;65881;52.438;16.744;2024-01-11T05:48:02;-5.00;99.90
76936;DHT22;65881;52.438;16.744;2024-01-11T05:50:28;-5.00;99.90
76936;DHT22;65881;52.438;16.744;2024-01-11T05:52:54;-5.00;99.90
76936;DHT22;65881;52.438;16.744;2024-01-11T05:55:22;-4.90;99.90
76936;DHT22;65881;52.438;16.744;2024-01-11T05:57:48;-4.90;99.90
76936;DHT22;65881;52.438;16.744;2024-01-11T06:00:14;-5.00;99.90
76936;DHT22;65881;52.438;16.744;2024-01-11T06:02:39;-5.00;99.90
76936;DHT22;65881;52.438;16.744;2024-01-11T06:05:08;-4.90;99.90
76936;DHT22;65881;52.438;16.744;2024-01-11T06:07:34;-5.00;99.90
76936;DHT22;65881;52.438;16.744;2024-01-11T06:09:59;-4.90;99.90
76936;DHT22;65881;52.438;16.744;2024-01-11T06:12:28;-4.90;99.90
76936;DHT22;65881;52.438;16.744;2024-01-11T06:14:53;-4.90;99.90
76936;DHT22;65881;52.438;16.744;2024-01-11T06:17:19;-4.90;99.90
76936;DHT22;65881;52.438;16.744;2024-01-11T06:19:45;-4.90;99.90
76936;DHT22;65881;52.438;16.744;2024-01-11T06:22:11;-4.90;99.90
76936;DHT22;65881;52.438;16.744;2024-01-11T06:24:36;-4.90;99.90
76936;DHT22;65881;52.438;16.744;2024-01-11T06:27:02;-4.90;99.90
76936;DHT22;65881;52.438;16.744;2024-01-11T06:29:28;-4.90;99.90
76936;DHT22;65881;52.438;16.744;2024-01-11T06:31:54;-4.90;99.90
76936;DHT22;65881;52.438;16.744;2024-01-11T06:34:19;-4.90;99.90
76936;DHT22;65881;52.438;16.744;2024-01-11T06:36:45;-4.90;99.90
76936;DHT22;65881;52.438;16.744;2024-01-11T06:39:12;-4.90;99.90
76936;DHT22;65881;52.438;16.744;2024-01-11T06:41:38;-4.90;99.90
76936;DHT22;65881;52.438;16.744;2024-01-11T06:44:04;-4.90;99.90
76936;DHT22;65881;52.438;16.744;2024-01-11T06:46:29;-4.90;99.90
76936;DHT22;65881;52.438;16.744;2024-01-11T06:48:55;-4.80;99.90
76936;DHT22;65881;52.438;16.744;2024-01-11T06:51:22;-4.80;99.90
76936;DHT22;65881;52.438;16.744;2024-01-11T06:53:48;-4.70;99.90
76936;DHT22;65881;52.438;16.744;2024-01-11T06:56:18;-4.70;99.90
76936;DHT22;65881;52.438;16.744;2024-01-11T06:58:45;-4.70;99.90
76936;DHT22;65881;52.438;16.744;2024-01-11T07:01:11;-4.80;99.90
76936;DHT22;65881;52.438;16.744;2024-01-11T07:03:38;-4.80;99.90
76936;DHT22;65881;52.438;16.744;2024-01-11T07:06:05;-4.70;99.90
76936;DHT22;65881;52.438;16.744;2024-01-11T07:08:31;-4.60;99.90
76936;DHT22;65881;52.438;16.744;2024-01-11T07:11:12;-4.60;99.90
76936;DHT22;65881;52.438;16.744;2024-01-11T07:13:40;-4.60;99.90
76936;DHT22;65881;52.438;16.744;2024-01-11T07:16:06;-4.60;99.90
76936;DHT22;65881;52.438;16.744;2024-01-11T07:18:32;-4.60;99.90
76936;DHT22;65881;52.438;16.744;2024-01-11T07:20:58;-4.60;99.90
76936;DHT22;65881;52.438;16.744;2024-01-11T07:23:24;-4.60;99.90
76936;DHT22;65881;52.438;16.744;2024-01-11T07:25:52;-4.50;99.90
76936;DHT22;65881;52.438;16.744;2024-01-11T07:28:18;-4.50;99.90
76936;DHT22;65881;52.438;16.744;2024-01-11T07:30:45;-4.50;99.90
76936;DHT22;65881;52.438;16.744;2024-01-11T07:33:11;-4.40;99.90
76936;DHT22;65881;52.438;16.744;2024-01-11T07:35:37;-4.40;99.90
76936;DHT22;65881;52.438;16.744;2024-01-11T07:38:03;-4.40;99.90
76936;DHT22;65881;52.438;16.744;2024-01-11T07:40:31;-4.30;99.90
76936;DHT22;65881;52.438;16.744;2024-01-11T07:42:56;-4.30;99.90
76936;DHT22;65881;52.438;16.744;2024-01-11T07:45:22;-4.30;99.90
76936;DHT22;65881;52.438;16.744;2024-01-11T07:47:48;-4.20;99.90
76936;DHT22;65881;52.438;16.744;2024-01-11T07:50:14;-4.20;99.90
76936;DHT22;65881;52.438;16.744;2024-01-11T07:52:41;-4.10;99.90
76936;DHT22;65881;52.438;16.744;2024-01-11T07:55:10;-4.10;99.90
76936;DHT22;65881;52.438;16.744;2024-01-11T07:57:49;-4.10;99.90
76936;DHT22;65881;52.438;16.744;2024-01-11T08:00:17;-4.10;99.90
76936;DHT22;65881;52.438;16.744;2024-01-11T08:02:43;-4.00;99.90
76936;DHT22;65881;52.438;16.744;2024-01-11T08:05:15;-4.00;99.90
76936;DHT22;65881;52.438;16.744;2024-01-11T08:07:42;-4.00;99.90
76936;DHT22;65881;52.438;16.744;2024-01-11T08:10:08;-4.00;99.90
76936;DHT22;65881;52.438;16.744;2024-01-11T08:12:37;-4.00;99.90
76936;DHT22;65881;52.438;16.744;2024-01-11T08:15:05;-3.90;99.90
76936;DHT22;65881;52.438;16.744;2024-01-11T08:17:31;-3.90;99.90
76936;DHT22;65881;52.438;16.744;2024-01-11T08:19:57;-3.80;99.90
76936;DHT22;65881;52.438;16.744;2024-01-11T08:22:23;-3.80;99.90
76936;DHT22;65881;52.438;16.744;2024-01-11T08:24:48;-3.80;99.90
76936;DHT22;65881;52.438;16.744;2024-01-11T08:27:17;-3.80;99.90
76936;DHT22;65881;52.438;16.744;2024-01-11T08:29:44;-3.60;99.90
76936;DHT22;65881;52.438;16.744;2024-01-11T08:32:12;-3.60;99.90
76936;DHT22;65881;52.438;16.744;2024-01-11T08:34:37;-3.60;99.90
76936;DHT22;65881;52.438;16.744;2024-01-11T08:37:03;-3.60;99.90
76936;DHT22;65881;52.438;16.744;2024-01-11T08:39:29;-3.60;99.90
76936;DHT22;65881;52.438;16.744;2024-01-11T08:41:57;-3.60;99.90
76936;DHT22;65881;52.438;16.744;2024-01-11T08:44:23;-3.50;99.90
76936;DHT22;65881;52.438;16.744;2024-01-11T08:46:48;-3.50;99.90
76936;DHT22;65881;52.438;16.744;2024-01-11T08:49:15;-3.40;99.90
76936;DHT22;65881;52.438;16.744;2024-01-11T08:51:41;-3.40;99.90
76936;DHT22;65881;52.438;16.744;2024-01-11T08:54:06;-3.40;99.90
76936;DHT22;65881;52.438;16.744;2024-01-11T08:56:35;-3.30;99.90
76936;DHT22;65881;52.438;16.744;2024-01-11T08:59:02;-3.30;99.90
76936;DHT22;65881;52.438;16.744;2024-01-11T09:01:28;-3.30;99.90
76936;DHT22;65881;52.438;16.744;2024-01-11T09:03:54;-3.20;99.90
76936;DHT22;65881;52.438;16.744;2024-01-11T09:06:20;-3.10;99.90
76936;DHT22;65881;52.438;16.744;2024-01-11T09:08:46;-3.00;99.90
76936;DHT22;65881;52.438;16.744;2024-01-11T09:11:16;-2.90;99.90
76936;DHT22;65881;52.438;16.744;2024-01-11T09:13:42;-2.90;99.90
76936;DHT22;65881;52.438;16.744;2024-01-11T09:16:08;-2.90;99.90
76936;DHT22;65881;52.438;16.744;2024-01-11T09:18:35;-2.90;99.90
76936;DHT22;65881;52.438;16.744;2024-01-11T09:21:00;-2.90;99.90
76936;DHT22;65881;52.438;16.744;2024-01-11T09:23:26;-2.90;99.90
76936;DHT22;65881;52.438;16.744;2024-01-11T09:25:52;-3.00;99.90
76936;DHT22;65881;52.438;16.744;2024-01-11T09:28:17;-2.90;99.90
76936;DHT22;65881;52.438;16.744;2024-01-11T09:30:43;-2.90;99.90
76936;DHT22;65881;52.438;16.744;2024-01-11T09:33:08;-2.90;99.90
76936;DHT22;65881;52.438;16.744;2024-01-11T09:35:39;-2.90;99.90
76936;DHT22;65881;52.438;16.744;2024-01-11T09:38:05;-2.90;99.90
76936;DHT22;65881;52.438;16.744;2024-01-11T09:40:31;-2.90;99.90
76936;DHT22;65881;52.438;16.744;2024-01-11T09:42:57;-2.80;99.90
76936;DHT22;65881;52.438;16.744;2024-01-11T09:45:22;-2.90;99.90
76936;DHT22;65881;52.438;16.744;2024-01-11T09:47:50;-2.80;99.90
76936;DHT22;65881;52.438;16.744;2024-01-11T09:50:16;-2.80;99.90
76936;DHT22;65881;52.438;16.744;2024-01-11T09:52:50;-2.80;99.90
76936;DHT22;65881;52.438;16.744;2024-01-11T09:55:17;-2.80;99.90
76936;DHT22;65881;52.438;16.744;2024-01-11T09:57:47;-2.80;99.90
76936;DHT22;65881;52.438;16.744;2024-01-11T10:00:23;-2.80;99.90
76936;DHT22;65881;52.438;16.744;2024-01-11T10:02:50;-2.80;99.90
76936;DHT22;65881;52.438;16.744;2024-01-11T10:05:17;-2.70;99.90
76936;DHT22;65881;52.438;16.744;2024-01-11T10:07:45;-2.80;99.90
76936;DHT22;65881;52.438;16.744;2024-01-11T10:10:13;-2.70;99.90
76936;DHT22;65881;52.438;16.744;2024-01-11T10:12:43;-2.70;99.90
76936;DHT22;65881;52.438;16.744;2024-01-11T10:15:10;-2.70;99.90
76936;DHT22;65881;52.438;16.744;2024-01-11T10:17:43;-2.60;99.90
76936;DHT22;65881;52.438;16.744;2024-01-11T10:20:15;-2.60;99.90
76936;DHT22;65881;52.438;16.744;2024-01-11T10:22:41;-2.60;99.90
76936;DHT22;65881;52.438;16.744;2024-01-11T10:25:14;-2.50;99.90
76936;DHT22;65881;52.438;16.744;2024-01-11T10:27:41;-2.50;99.90
76936;DHT22;65881;52.438;16.744;2024-01-11T10:30:12;-2.50;99.90
76936;DHT22;65881;52.438;16.744;2024-01-11T10:32:46;-2.40;99.90
76936;DHT22;65881;52.438;16.744;2024-01-11T10:35:12;-2.40;99.90
76936;DHT22;65881;52.438;16.744;2024-01-11T10:37:38;-2.40;99.90
76936;DHT22;65881;52.438;16.744;2024-01-11T10:40:06;-2.40;99.90
76936;DHT22;65881;52.438;16.744;2024-01-11T10:42:43;-2.30;99.90
76936;DHT22;65881;52.438;16.744;2024-01-11T10:45:17;-2.40;99.90
76936;DHT22;65881;52.438;16.744;2024-01-11T10:48:00;-2.40;99.90
76936;DHT22;65881;52.438;16.744;2024-01-11T10:50:30;-2.40;99.90
76936;DHT22;65881;52.438;16.744;2024-01-11T10:56:03;-2.40;99.90
76936;DHT22;65881;52.438;16.744;2024-01-11T10:58:30;-2.30;99.90
76936;DHT22;65881;52.438;16.744;2024-01-11T11:00:57;-2.30;99.90
76936;DHT22;65881;52.438;16.744;2024-01-11T11:03:25;-2.30;99.90
76936;DHT22;65881;52.438;16.744;2024-01-11T11:05:53;-2.20;99.90
76936;DHT22;65881;52.438;16.744;2024-01-11T11:08:22;-2.30;99.90
76936;DHT22;65881;52.438;16.744;2024-01-11T11:10:51;-2.20;99.90
76936;DHT22;65881;52.438;16.744;2024-01-11T11:13:21;-2.20;99.90
76936;DHT22;65881;52.438;16.744;2024-01-11T11:15:48;-2.20;99.90
76936;DHT22;65881;52.438;16.744;2024-01-11T11:18:16;-2.20;99.90
76936;DHT22;65881;52.438;16.744;2024-01-11T11:20:42;-2.10;99.90
76936;DHT22;65881;52.438;16.744;2024-01-11T11:23:09;-2.10;99.90
76936;DHT22;65881;52.438;16.744;2024-01-11T11:25:37;-2.10;99.90
76936;DHT22;65881;52.438;16.744;2024-01-11T11:28:05;-2.10;99.90
76936;DHT22;65881;52.438;16.744;2024-01-11T11:30:31;-2.10;99.90
76936;DHT22;65881;52.438;16.744;2024-01-11T11:32:57;-2.10;99.90
76936;DHT22;65881;52.438;16.744;2024-01-11T11:35:25;-2.00;99.90
76936;DHT22;65881;52.438;16.744;2024-01-11T11:37:55;-2.00;99.90
76936;DHT22;65881;52.438;16.744;2024-01-11T11:40:22;-1.90;99.90
76936;DHT22;65881;52.438;16.744;2024-01-11T11:42:57;-2.00;99.90
76936;DHT22;65881;52.438;16.744;2024-01-11T11:45:26;-2.00;99.90
76936;DHT22;65881;52.438;16.744;2024-01-11T11:47:51;-1.90;99.90
76936;DHT22;65881;52.438;16.744;2024-01-11T11:50:21;-1.90;99.90
76936;DHT22;65881;52.438;16.744;2024-01-11T11:52:54;-1.90;99.90
76936;DHT22;65881;52.438;16.744;2024-01-11T11:55:23;-1.90;99.90
76936;DHT22;65881;52.438;16.744;2024-01-11T11:57:50;-1.90;99.90
76936;DHT22;65881;52.438;16.744;2024-01-11T12:00:16;-1.90;99.90
76936;DHT22;65881;52.438;16.744;2024-01-11T12:02:42;-1.80;99.90
76936;DHT22;65881;52.438;16.744;2024-01-11T12:05:08;-1.60;99.90
76936;DHT22;65881;52.438;16.744;2024-01-11T12:07:33;-1.50;99.90
76936;DHT22;65881;52.438;16.744;2024-01-11T12:09:59;-1.40;99.90
76936;DHT22;65881;52.438;16.744;2024-01-11T12:12:25;-1.30;99.90
76936;DHT22;65881;52.438;16.744;2024-01-11T12:14:53;-1.40;99.90
76936;DHT22;65881;52.438;16.744;2024-01-11T12:17:19;-1.50;99.90
76936;DHT22;65881;52.438;16.744;2024-01-11T12:19:46;-1.50;99.90
76936;DHT22;65881;52.438;16.744;2024-01-11T12:22:11;-1.60;99.90
76936;DHT22;65881;52.438;16.744;2024-01-11T12:24:38;-1.60;99.90
76936;DHT22;65881;52.438;16.744;2024-01-11T12:27:04;-1.60;99.90
76936;DHT22;65881;52.438;16.744;2024-01-11T12:29:30;-1.60;99.90
76936;DHT22;65881;52.438;16.744;2024-01-11T12:31:57;-1.60;99.90
76936;DHT22;65881;52.438;16.744;2024-01-11T12:34:27;-1.60;99.90
76936;DHT22;65881;52.438;16.744;2024-01-11T12:36:53;-1.60;99.90
76936;DHT22;65881;52.438;16.744;2024-01-11T12:39:20;-1.60;99.90
76936;DHT22;65881;52.438;16.744;2024-01-11T12:41:50;-1.60;99.90
76936;DHT22;65881;52.438;16.744;2024-01-11T12:44:17;-1.60;99.90
76936;DHT22;65881;52.438;16.744;2024-01-11T12:46:44;-1.60;99.90
76936;DHT22;65881;52.438;16.744;2024-01-11T12:49:12;-1.60;99.90
76936;DHT22;65881;52.438;16.744;2024-01-11T12:51:39;-1.60;99.90
76936;DHT22;65881;52.438;16.744;2024-01-11T12:54:13;-1.60;99.90
76936;DHT22;65881;52.438;16.744;2024-01-11T12:56:45;-1.50;99.90
76936;DHT22;65881;52.438;16.744;2024-01-11T12:59:11;-1.50;99.90
76936;DHT22;65881;52.438;16.744;2024-01-11T13:01:38;-1.50;99.90
76936;DHT22;65881;52.438;16.744;2024-01-11T13:04:05;-1.50;99.90
76936;DHT22;65881;52.438;16.744;2024-01-11T13:06:34;-1.50;99.90
76936;DHT22;65881;52.438;16.744;2024-01-11T13:09:04;-1.50;99.90
76936;DHT22;65881;52.438;16.744;2024-01-11T13:11:36;-1.40;99.90
76936;DHT22;65881;52.438;16.744;2024-01-11T13:14:02;-1.40;99.90
76936;DHT22;65881;52.438;16.744;2024-01-11T13:19:03;-1.30;99.90
76936;DHT22;65881;52.438;16.744;2024-01-11T13:21:29;-1.40;99.90
76936;DHT22;65881;52.438;16.744;2024-01-11T13:23:55;-1.40;99.90
76936;DHT22;65881;52.438;16.744;2024-01-11T13:26:23;-1.30;99.90
76936;DHT22;65881;52.438;16.744;2024-01-11T13:28:49;-1.30;99.90
76936;DHT22;65881;52.438;16.744;2024-01-11T13:31:16;-1.30;99.90
76936;DHT22;65881;52.438;16.744;2024-01-11T13:33:41;-1.30;99.90
76936;DHT22;65881;52.438;16.744;2024-01-11T13:36:07;-1.30;99.90
76936;DHT22;65881;52.438;16.744;2024-01-11T13:38:33;-1.30;99.90
76936;DHT22;65881;52.438;16.744;2024-01-11T13:40:58;-1.30;99.90
76936;DHT22;65881;52.438;16.744;2024-01-11T13:43:24;-1.30;99.90
76936;DHT22;65881;52.438;16.744;2024-01-11T13:45:49;-1.20;99.90
76936;DHT22;65881;52.438;16.744;2024-01-11T13:48:15;-1.20;99.90
76936;DHT22;65881;52.438;16.744;2024-01-11T13:50:41;-1.20;99.90
76936;DHT22;65881;52.438;16.744;2024-01-11T13:53:06;-1.20;99.90
76936;DHT22;65881;52.438;16.744;2024-01-11T13:55:32;-1.10;99.90
76936;DHT22;65881;52.438;16.744;2024-01-11T13:58:07;-1.10;99.90
76936;DHT22;65881;52.438;16.744;2024-01-11T14:00:33;-1.10;99.90
76936;DHT22;65881;52.438;16.744;2024-01-11T14:02:58;-1.10;99.90
76936;DHT22;65881;52.438;16.744;2024-01-11T14:05:24;-1.10;99.90
76936;DHT22;65881;52.438;16.744;2024-01-11T14:07:50;-1.10;99.90
76936;DHT22;65881;52.438;16.744;2024-01-11T14:10:19;-1.10;99.90
76936;DHT22;65881;52.438;16.744;2024-01-11T14:12:45;-1.10;99.90
76936;DHT22;65881;52.438;16.744;2024-01-11T14:15:11;-1.00;99.90
76936;DHT22;65881;52.438;16.744;2024-01-11T14:17:37;-1.00;99.90
76936;DHT22;65881;52.438;16.744;2024-01-11T14:20:03;-1.00;99.90
76936;DHT22;65881;52.438;16.744;2024-01-11T14:22:32;-1.00;99.90
76936;DHT22;65881;52.438;16.744;2024-01-11T14:25:00;-1.00;99.90
76936;DHT22;65881;52.438;16.744;2024-01-11T14:27:25;-1.00;99.90
76936;DHT22;65881;52.438;16.744;2024-01-11T14:29:52;-1.00;99.90
76936;DHT22;65881;52.438;16.744;2024-01-11T14:32:17;-1.00;99.90
76936;DHT22;65881;52.438;16.744;2024-01-11T14:34:43;-1.00;99.90
76936;DHT22;65881;52.438;16.744;2024-01-11T14:37:11;-0.90;99.90
76936;DHT22;65881;52.438;16.744;2024-01-11T14:39:37;-0.90;99.90
76936;DHT22;65881;52.438;16.744;2024-01-11T14:42:02;-0.90;99.90
76936;DHT22;65881;52.438;16.744;2024-01-11T14:44:28;-0.70;99.90
76936;DHT22;65881;52.438;16.744;2024-01-11T14:46:54;-0.70;99.90
76936;DHT22;65881;52.438;16.744;2024-01-11T14:49:19;-0.70;99.90
76936;DHT22;65881;52.438;16.744;2024-01-11T14:51:45;-0.80;99.90
76936;DHT22;65881;52.438;16.744;2024-01-11T14:54:10;-0.80;99.90
76936;DHT22;65881;52.438;16.744;2024-01-11T14:56:36;-0.90;99.90
76936;DHT22;65881;52.438;16.744;2024-01-11T14:59:02;-0.80;99.90
76936;DHT22;65881;52.438;16.744;2024-01-11T15:01:29;-0.80;99.90
76936;DHT22;65881;52.438;16.744;2024-01-11T15:03:54;-0.70;99.90
76936;DHT22;65881;52.438;16.744;2024-01-11T15:06:20;-0.70;99.90
76936;DHT22;65881;52.438;16.744;2024-01-11T15:08:45;-0.70;99.90
76936;DHT22;65881;52.438;16.744;2024-01-11T15:11:11;-0.70;99.90
76936;DHT22;65881;52.438;16.744;2024-01-11T15:13:37;-0.70;99.90
76936;DHT22;65881;52.438;16.744;2024-01-11T15:16:02;-0.70;99.90
76936;DHT22;65881;52.438;16.744;2024-01-11T15:18:28;-0.70;99.90